createdAt,value
2023-05-20T00:01:45.258Z,100332.44
2023-05-20T00:04:12.420Z,100328.22
2023-05-20T00:06:39.584Z,100324.81
2023-05-20T00:09:06.858Z,100335.84
2023-05-20T00:11:33.895Z,100323.97
2023-05-20T00:14:00.873Z,100319.75
2023-05-20T00:16:28.012Z,100322.31
2023-05-20T00:18:56.741Z,100322.28
2023-05-20T00:21:23.813Z,100324.03
2023-05-20T00:23:51.433Z,100326.59
2023-05-20T00:26:19.067Z,100327.47
2023-05-20T00:28:52.507Z,100315.59
2023-05-20T00:31:19.500Z,100329.19
2023-05-20T00:33:47.553Z,100330.06
2023-05-20T00:36:14.554Z,100326.72
2023-05-20T00:38:41.540Z,100328.41
2023-05-20T00:41:08.505Z,100324.19
2023-05-20T00:43:35.563Z,100314.88
2023-05-20T00:46:02.889Z,100321.66
2023-05-20T00:48:41.202Z,100316.63
2023-05-20T00:51:08.489Z,100320.88
2023-05-20T00:53:36.925Z,100319.19
2023-05-20T00:56:05.362Z,100315.00
2023-05-20T00:58:32.763Z,100314.97
2023-05-20T01:00:59.831Z,100314.19
2023-05-20T01:03:27.545Z,100315.88
2023-05-20T01:05:54.864Z,100315.84
2023-05-20T01:08:26.099Z,100317.56
2023-05-20T01:11:31.170Z,100306.56
2023-05-20T01:14:06.537Z,100310.00
2023-05-20T01:16:36.351Z,100316.78
2023-05-20T01:19:17.263Z,100307.47
2023-05-20T01:21:45.610Z,100314.28
2023-05-20T01:24:12.623Z,100314.28
2023-05-20T01:26:39.736Z,100310.88
2023-05-20T01:29:06.783Z,100318.53
2023-05-20T01:31:38.892Z,100310.09
2023-05-20T01:34:06.742Z,100308.38
2023-05-20T01:36:34.425Z,100310.09
2023-05-20T01:39:03.055Z,100305.88
2023-05-20T01:41:31.954Z,100296.53
2023-05-20T01:43:59.260Z,100297.41
2023-05-20T01:46:26.341Z,100293.16
2023-05-20T01:48:53.342Z,100290.63
2023-05-20T01:51:20.680Z,100293.19
2023-05-20T01:53:47.656Z,100291.50
2023-05-20T01:56:14.947Z,100284.72
2023-05-20T01:58:41.955Z,100294.03
2023-05-20T02:01:09.285Z,100280.47
2023-05-20T02:03:36.276Z,100283.91
2023-05-20T02:06:03.523Z,100289.84
2023-05-20T02:08:30.580Z,100284.75
2023-05-20T02:10:57.560Z,100286.47
2023-05-20T02:13:24.512Z,100282.22
2023-05-20T02:15:51.568Z,100280.53
2023-05-20T02:18:20.043Z,100289.00
2023-05-20T02:20:47.092Z,100283.91
2023-05-20T02:23:14.602Z,100286.47
2023-05-20T02:25:41.853Z,100288.16
2023-05-20T02:28:10.852Z,100288.16
2023-05-20T02:30:40.649Z,100283.09
2023-05-20T02:33:08.946Z,100288.97
2023-05-20T02:35:37.053Z,100284.72
2023-05-20T02:38:04.104Z,100282.22
2023-05-20T02:40:31.444Z,100283.06
2023-05-20T02:42:59.984Z,100282.22
2023-05-20T02:45:27.424Z,100286.47
2023-05-20T02:47:54.505Z,100299.16
2023-05-20T02:50:21.461Z,100292.38
2023-05-20T02:52:48.495Z,100279.66
2023-05-20T02:55:15.652Z,100288.13
2023-05-20T02:57:43.653Z,100278.81
2023-05-20T03:00:13.433Z,100275.47
2023-05-20T03:02:40.663Z,100277.97
2023-05-20T03:05:08.468Z,100281.34
2023-05-20T03:07:36.488Z,100271.19
2023-05-20T03:10:06.741Z,100269.50
2023-05-20T03:12:33.763Z,100265.28
2023-05-20T03:15:01.088Z,100259.34
2023-05-20T03:17:28.221Z,100273.72
2023-05-20T03:19:57.126Z,100260.19
2023-05-20T03:22:24.408Z,100256.78
2023-05-20T03:24:52.817Z,100262.72
2023-05-20T03:27:21.919Z,100271.19
2023-05-20T03:29:48.909Z,100268.66
2023-05-20T03:32:16.232Z,100266.13
2023-05-20T03:34:43.276Z,100268.63
2023-05-20T03:37:10.384Z,100262.72
2023-05-20T03:39:37.567Z,100258.47
2023-05-20T03:42:05.187Z,100257.63
2023-05-20T03:44:32.278Z,100255.94
2023-05-20T03:46:59.257Z,100262.72
2023-05-20T03:49:26.596Z,100272.00
2023-05-20T03:51:53.618Z,100261.03
2023-05-20T03:54:20.699Z,100254.25
2023-05-20T03:56:51.878Z,100260.16
2023-05-20T03:59:19.609Z,100266.94
2023-05-20T04:01:46.891Z,100269.47
2023-05-20T04:04:14.100Z,100272.88
2023-05-20T04:06:41.895Z,100261.00
2023-05-20T04:09:09.526Z,100266.09
2023-05-20T04:11:36.527Z,100261.88
2023-05-20T04:14:03.578Z,100265.25
2023-05-20T04:16:30.975Z,100266.97
2023-05-20T04:18:59.342Z,100281.34
2023-05-20T04:21:26.447Z,100272.06
2023-05-20T04:23:53.590Z,100269.50
2023-05-20T04:26:20.795Z,100272.88
2023-05-20T04:28:50.662Z,100267.81
2023-05-20T04:31:18.687Z,100263.59
2023-05-20T04:33:46.631Z,100263.56
2023-05-20T04:36:16.127Z,100263.56
2023-05-20T04:38:44.534Z,100266.06
2023-05-20T04:41:11.564Z,100266.84
2023-05-20T04:43:40.078Z,100257.50
2023-05-20T04:46:07.241Z,100265.91
2023-05-20T04:48:34.896Z,100268.38
2023-05-20T04:51:02.197Z,100258.13
2023-05-20T04:53:30.497Z,100266.53
2023-05-20T04:55:57.568Z,100270.66
2023-05-20T04:58:25.620Z,100266.31
2023-05-20T05:00:53.445Z,100265.34
2023-05-20T05:03:20.663Z,100260.09
2023-05-20T05:05:48.617Z,100264.19
2023-05-20T05:08:16.708Z,100260.66
2023-05-20T05:10:49.036Z,100257.91
2023-05-20T05:13:16.442Z,100257.72
2023-05-20T05:15:43.656Z,100266.84
2023-05-20T05:18:11.764Z,100253.88
2023-05-20T05:20:39.237Z,100252.75
2023-05-20T05:23:07.261Z,100254.22
2023-05-20T05:25:34.594Z,100249.66
2023-05-20T05:28:01.743Z,100250.25
2023-05-20T05:30:28.770Z,100247.38
2023-05-20T05:32:55.882Z,100236.00
2023-05-20T05:35:23.210Z,100233.97
2023-05-20T05:37:50.868Z,100234.44
2023-05-20T05:40:18.041Z,100232.34
2023-05-20T05:42:45.448Z,100232.84
2023-05-20T05:45:12.421Z,100228.19
2023-05-20T05:47:40.125Z,100232.91
2023-05-20T05:50:07.769Z,100230.72
2023-05-20T05:52:36.007Z,100236.34
2023-05-20T05:55:04.505Z,100235.03
2023-05-20T05:57:31.961Z,100235.47
2023-05-20T05:59:59.520Z,100230.78
2023-05-20T06:02:30.593Z,100232.84
2023-05-20T06:04:58.315Z,100230.66
2023-05-20T06:07:25.387Z,100220.75
2023-05-20T06:09:52.355Z,100218.53
2023-05-20T06:12:19.313Z,100229.97
2023-05-20T06:14:46.304Z,100232.06
2023-05-20T06:17:13.373Z,100220.44
2023-05-20T06:19:40.978Z,100219.84
2023-05-20T06:22:08.962Z,100213.34
2023-05-20T06:24:36.484Z,100219.72
2023-05-20T06:27:03.573Z,100210.69
2023-05-20T06:29:30.724Z,100214.47
2023-05-20T06:31:57.740Z,100220.06
2023-05-20T06:34:25.079Z,100220.50
2023-05-20T06:36:52.869Z,100217.59
2023-05-20T06:39:19.861Z,100210.44
2023-05-20T06:41:46.895Z,100212.75
2023-05-20T06:44:23.215Z,100211.56
2023-05-20T06:46:57.722Z,100208.72
2023-05-20T06:49:24.936Z,100210.06
2023-05-20T06:51:52.033Z,100207.91
2023-05-20T06:54:19.120Z,100201.59
2023-05-20T06:56:46.930Z,100195.06
2023-05-20T06:59:14.784Z,100203.91
2023-05-20T07:01:43.136Z,100199.03
2023-05-20T07:04:10.723Z,100200.59
2023-05-20T07:06:38.225Z,100210.72
2023-05-20T07:09:05.509Z,100202.28
2023-05-20T07:11:33.130Z,100188.28
2023-05-20T07:14:00.361Z,100186.19
2023-05-20T07:16:29.514Z,100177.44
2023-05-20T07:18:56.685Z,100180.59
2023-05-20T07:21:24.473Z,100179.63
2023-05-20T07:23:59.298Z,100179.03
2023-05-20T07:26:26.494Z,100181.13
2023-05-20T07:28:53.557Z,100177.94
2023-05-20T07:31:20.606Z,100175.09
2023-05-20T07:33:48.616Z,100173.06
2023-05-20T07:36:15.622Z,100177.84
2023-05-20T07:38:57.010Z,100178.81
2023-05-20T07:41:30.478Z,100174.69
2023-05-20T07:43:57.754Z,100167.09
2023-05-20T07:46:24.848Z,100173.97
2023-05-20T07:48:52.004Z,100171.78
2023-05-20T07:51:19.262Z,100165.16
2023-05-20T07:53:46.552Z,100162.94
2023-05-20T07:56:13.710Z,100160.31
2023-05-20T07:58:56.099Z,100158.75
2023-05-20T08:01:27.082Z,100157.47
2023-05-20T08:03:55.310Z,100162.56
2023-05-20T08:06:25.462Z,100156.25
2023-05-20T08:08:54.299Z,100146.03
2023-05-20T08:11:26.262Z,100152.63
2023-05-20T08:13:53.831Z,100153.50
2023-05-20T08:16:22.860Z,100149.16
2023-05-20T08:18:50.042Z,100147.81
2023-05-20T08:21:17.163Z,100131.03
2023-05-20T08:23:44.349Z,100136.19
2023-05-20T08:26:11.429Z,100148.31
2023-05-20T08:28:41.542Z,100139.00
2023-05-20T08:31:08.721Z,100150.94
2023-05-20T08:33:36.433Z,100139.88
2023-05-20T08:36:03.700Z,100139.09
2023-05-20T08:38:30.804Z,100138.91
2023-05-20T08:40:58.134Z,100136.41
2023-05-20T08:43:26.696Z,100140.31
2023-05-20T08:45:54.780Z,100140.47
2023-05-20T08:48:27.856Z,100131.88
2023-05-20T08:50:57.963Z,100131.03
2023-05-20T08:53:25.881Z,100128.53
2023-05-20T08:56:03.070Z,100124.00
2023-05-20T08:58:31.603Z,100123.78
2023-05-20T09:00:59.287Z,100128.50
2023-05-20T09:03:26.626Z,100127.41
2023-05-20T09:06:03.051Z,100120.94
2023-05-20T09:08:31.417Z,100121.78
2023-05-20T09:10:58.403Z,100124.38
2023-05-20T09:13:25.408Z,100131.00
2023-05-20T09:15:52.432Z,100131.41
2023-05-20T09:18:19.510Z,100123.13
2023-05-20T09:20:52.852Z,100122.88
2023-05-20T09:23:22.159Z,100129.31
2023-05-20T09:25:52.924Z,100118.56
2023-05-20T09:28:25.058Z,100114.22
2023-05-20T09:31:00.732Z,100111.81
2023-05-20T09:33:31.929Z,100111.78
2023-05-20T09:36:14.669Z,100110.94
2023-05-20T09:38:45.246Z,100107.84
2023-05-20T09:41:15.221Z,100107.22
2023-05-20T09:43:42.686Z,100115.97
2023-05-20T09:46:11.041Z,100109.00
2023-05-20T09:48:38.426Z,100111.19
2023-05-20T09:51:07.752Z,100109.69
2023-05-20T09:53:35.916Z,100112.44
2023-05-20T09:56:03.066Z,100106.56
2023-05-20T09:58:31.007Z,100110.06
2023-05-20T10:00:58.101Z,100114.44
2023-05-20T10:03:27.871Z,100111.97
2023-05-20T10:06:09.998Z,100112.59
2023-05-20T10:09:07.343Z,100104.16
2023-05-20T10:12:02.337Z,100112.38
2023-05-20T10:14:46.054Z,100102.56
2023-05-20T10:17:39.961Z,100102.13
2023-05-20T10:20:14.641Z,100101.84
2023-05-20T10:22:41.714Z,100101.19
2023-05-20T10:25:24.272Z,100092.47
2023-05-20T10:27:51.384Z,100097.34
2023-05-20T10:30:21.335Z,100101.13
2023-05-20T10:32:57.514Z,100105.38
2023-05-20T10:35:29.259Z,100100.44
2023-05-20T10:38:13.020Z,100107.16
2023-05-20T10:40:40.868Z,100102.94
2023-05-20T10:43:16.124Z,100101.31
2023-05-20T10:45:55.428Z,100105.81
2023-05-20T10:48:31.587Z,100095.88
2023-05-20T10:51:06.388Z,100089.88
2023-05-20T10:53:42.097Z,100091.97
2023-05-20T10:56:20.138Z,100086.16
2023-05-20T10:58:48.411Z,100082.50
2023-05-20T11:01:18.945Z,100077.38
2023-05-20T11:03:48.229Z,100080.00
2023-05-20T11:06:18.444Z,100078.09
2023-05-20T11:08:46.586Z,100079.88
2023-05-20T11:11:15.213Z,100073.97
2023-05-20T11:13:42.513Z,100071.69
2023-05-20T11:16:09.749Z,100072.19
2023-05-20T11:18:36.887Z,100067.56
2023-05-20T11:21:04.050Z,100061.88
2023-05-20T11:23:31.311Z,100062.19
2023-05-20T11:25:58.698Z,100059.44
2023-05-20T11:28:26.397Z,100050.84
2023-05-20T11:30:53.948Z,100060.00
2023-05-20T11:33:21.304Z,100048.28
2023-05-20T11:35:54.005Z,100049.22
2023-05-20T11:38:22.012Z,100050.00
2023-05-20T11:40:55.216Z,100046.94
2023-05-20T11:43:24.187Z,100041.03
2023-05-20T11:45:59.760Z,100037.75
2023-05-20T11:48:27.666Z,100041.25
2023-05-20T11:50:56.281Z,100037.75
2023-05-20T11:53:24.573Z,100044.53
2023-05-20T11:55:58.183Z,100035.78
2023-05-20T11:58:31.308Z,100031.28
2023-05-20T12:01:05.645Z,100036.59
2023-05-20T12:03:46.097Z,100028.22
2023-05-20T12:06:13.635Z,100022.59
2023-05-20T12:08:40.810Z,100024.41
2023-05-20T12:11:07.760Z,100014.00
2023-05-20T12:13:35.554Z,100024.53
2023-05-20T12:16:04.168Z,100016.84
2023-05-20T12:18:34.445Z,100025.13
2023-05-20T12:21:01.888Z,100030.19
2023-05-20T12:23:30.745Z,100026.63
2023-05-20T12:25:57.793Z,100019.03
2023-05-20T12:28:24.878Z,100017.47
2023-05-20T12:30:52.002Z,100022.66
2023-05-20T12:33:20.606Z,100013.84
2023-05-20T12:35:47.924Z,100022.97
2023-05-20T12:38:15.000Z,100015.56
2023-05-20T12:40:42.007Z,100020.00
2023-05-20T12:43:09.083Z,100006.91
2023-05-20T12:45:36.206Z,100016.19
2023-05-20T12:48:04.592Z,100016.88
2023-05-20T12:50:31.610Z,100015.97
2023-05-20T12:52:58.737Z,100022.88
2023-05-20T12:55:25.740Z,100020.38
2023-05-20T12:57:52.709Z,100023.56
2023-05-20T13:00:19.692Z,100018.03
2023-05-20T13:02:46.827Z,100013.50
2023-05-20T13:05:14.852Z,100017.59
2023-05-20T13:07:42.037Z,100008.03
2023-05-20T13:10:10.815Z,100006.97
2023-05-20T13:12:38.344Z,100014.56
2023-05-20T13:15:06.471Z,100007.72
2023-05-20T13:17:33.713Z,100008.78
2023-05-20T13:20:00.799Z,100003.16
2023-05-20T13:22:28.169Z,99999.75
2023-05-20T13:24:55.428Z,100002.59
2023-05-20T13:27:22.486Z,99997.59
2023-05-20T13:29:49.446Z,99997.59
2023-05-20T13:32:16.571Z,99990.72
2023-05-20T13:34:43.624Z,99990.03
2023-05-20T13:37:10.771Z,99992.31
2023-05-20T13:39:37.922Z,99986.97
2023-05-20T13:42:05.105Z,99990.00
2023-05-20T13:44:32.804Z,99987.03
2023-05-20T13:47:00.336Z,99980.53
2023-05-20T13:49:27.591Z,99986.81
2023-05-20T13:51:54.567Z,99987.94
2023-05-20T13:54:21.958Z,99978.59
2023-05-20T13:56:49.091Z,99979.47
2023-05-20T13:59:16.430Z,99987.50
2023-05-20T14:01:45.133Z,99980.88
2023-05-20T14:04:13.231Z,99975.84
2023-05-20T14:06:40.774Z,99970.75
2023-05-20T14:09:09.201Z,99971.72
2023-05-20T14:11:36.486Z,99971.72
2023-05-20T14:14:03.522Z,99963.34
2023-05-20T14:16:32.206Z,99959.25
2023-05-20T14:18:59.462Z,99960.44
2023-05-20T14:21:26.448Z,99961.44
2023-05-20T14:23:53.664Z,99952.91
2023-05-20T14:26:21.674Z,99953.75
2023-05-20T14:28:49.041Z,99946.84
2023-05-20T14:31:16.313Z,99943.44
2023-05-20T14:33:43.398Z,99945.06
2023-05-20T14:36:11.363Z,99945.31
2023-05-20T14:38:38.621Z,99932.53
2023-05-20T14:41:05.617Z,99938.81
2023-05-20T14:43:32.755Z,99939.66
2023-05-20T14:46:00.276Z,99939.66
2023-05-20T14:48:27.459Z,99931.28
2023-05-20T14:50:54.585Z,99922.97
2023-05-20T14:53:22.365Z,99933.53
2023-05-20T14:55:49.437Z,99927.91
2023-05-20T14:58:16.455Z,99929.88
2023-05-20T15:00:43.609Z,99920.81
2023-05-20T15:03:11.667Z,99929.59
2023-05-20T15:05:38.835Z,99923.09
2023-05-20T15:08:06.279Z,99920.91
2023-05-20T15:10:33.659Z,99917.84
2023-05-20T15:13:00.965Z,99918.97
2023-05-20T15:15:27.986Z,99925.97
2023-05-20T15:17:55.590Z,99929.47
2023-05-20T15:20:22.930Z,99930.22
2023-05-20T15:22:49.917Z,99919.81
2023-05-20T15:25:17.060Z,99922.22
2023-05-20T15:27:44.526Z,99917.06
2023-05-20T15:30:12.438Z,99924.00
2023-05-20T15:32:39.986Z,99921.59
2023-05-20T15:35:07.791Z,99918.97
2023-05-20T15:37:34.874Z,99917.94
2023-05-20T15:40:02.117Z,99914.31
2023-05-20T15:42:29.214Z,99917.75
2023-05-20T15:44:56.215Z,99917.69
2023-05-20T15:47:23.343Z,99920.97
2023-05-20T15:49:50.754Z,99924.47
2023-05-20T15:52:17.820Z,99926.25
2023-05-20T15:54:44.783Z,99918.81
2023-05-20T15:57:11.772Z,99916.44
2023-05-20T15:59:38.757Z,99919.28
2023-05-20T16:02:06.544Z,99915.97
2023-05-20T16:04:33.788Z,99911.84
2023-05-20T16:07:00.874Z,99913.75
2023-05-20T16:09:27.789Z,99913.78
2023-05-20T16:11:56.049Z,99903.69
2023-05-20T16:14:23.110Z,99907.22
2023-05-20T16:16:50.184Z,99906.34
2023-05-20T16:19:17.248Z,99905.63
2023-05-20T16:21:44.717Z,99910.03
2023-05-20T16:24:12.299Z,99921.53
2023-05-20T16:26:39.290Z,99926.97
2023-05-20T16:29:06.515Z,99917.88
2023-05-20T16:31:33.725Z,99918.97
2023-05-20T16:34:00.858Z,99926.94
2023-05-20T16:36:27.906Z,99923.69
2023-05-20T16:38:55.215Z,99924.69
2023-05-20T16:41:22.809Z,99923.13
2023-05-20T16:43:49.770Z,99929.25
2023-05-20T16:46:16.940Z,99929.41
2023-05-20T16:48:44.001Z,99932.09
2023-05-20T16:51:11.144Z,99922.81
2023-05-20T16:53:38.159Z,99923.78
2023-05-20T16:56:08.714Z,99924.81
2023-05-20T16:58:35.767Z,99932.75
2023-05-20T17:01:02.816Z,99927.00
2023-05-20T17:03:29.832Z,99932.34
2023-05-20T17:05:57.145Z,99935.13
2023-05-20T17:08:24.137Z,99943.78
2023-05-20T17:10:53.975Z,99932.84
2023-05-20T17:13:21.962Z,99935.63
2023-05-20T17:15:48.935Z,99932.38
2023-05-20T17:18:16.134Z,99934.28
2023-05-20T17:20:43.337Z,99935.25
2023-05-20T17:23:10.390Z,99938.81
2023-05-20T17:25:37.690Z,99941.53
2023-05-20T17:28:04.743Z,99940.03
2023-05-20T17:30:32.157Z,99937.69
2023-05-20T17:32:59.246Z,99934.47
2023-05-20T17:35:26.376Z,99932.91
2023-05-20T17:37:53.788Z,99933.09
2023-05-20T17:40:21.540Z,99940.91
2023-05-20T17:42:48.544Z,99941.91
2023-05-20T17:45:16.113Z,99948.03
2023-05-20T17:47:43.251Z,99945.59
2023-05-20T17:50:11.036Z,99943.22
2023-05-20T17:52:38.127Z,99939.84
2023-05-20T17:55:06.648Z,99948.47
2023-05-20T17:57:34.202Z,99945.97
2023-05-20T18:00:02.189Z,99942.59
2023-05-20T18:02:32.736Z,99941.00
2023-05-20T18:04:59.751Z,99950.53
2023-05-20T18:07:27.050Z,99945.59
2023-05-20T18:09:54.324Z,99948.22
2023-05-20T18:12:21.382Z,99946.59
2023-05-20T18:14:48.414Z,99954.38
2023-05-20T18:17:15.517Z,99948.59
2023-05-20T18:19:42.571Z,99945.22
2023-05-20T18:22:09.620Z,99953.81
2023-05-20T18:24:36.622Z,99955.59
2023-05-20T18:27:03.793Z,99954.81
2023-05-20T18:29:30.987Z,99962.56
2023-05-20T18:31:58.187Z,99964.38
2023-05-20T18:34:25.584Z,99961.06
2023-05-20T18:36:52.806Z,99963.72
2023-05-20T18:39:20.904Z,99962.91
2023-05-20T18:41:48.516Z,99956.13
2023-05-20T18:44:19.205Z,99951.06
2023-05-20T18:46:46.454Z,99952.81
2023-05-20T18:49:13.627Z,99952.00
2023-05-20T18:51:41.336Z,99953.69
2023-05-20T18:54:08.670Z,99963.09
2023-05-20T18:56:36.294Z,99953.75
2023-05-20T18:59:03.480Z,99954.63
2023-05-20T19:01:31.078Z,99952.16
2023-05-20T19:03:58.153Z,99944.59
2023-05-20T19:06:25.698Z,99952.34
2023-05-20T19:08:52.672Z,99956.72
2023-05-20T19:11:19.669Z,99962.03
2023-05-20T19:13:46.667Z,99962.13
2023-05-20T19:16:13.840Z,99958.88
2023-05-20T19:18:40.903Z,99966.72
2023-05-20T19:21:07.991Z,99964.31
2023-05-20T19:23:34.943Z,99959.34
2023-05-20T19:26:02.402Z,99963.81
2023-05-20T19:28:29.384Z,99960.63
2023-05-20T19:30:56.407Z,99965.97
2023-05-20T19:33:23.476Z,99964.53
2023-05-20T19:35:50.865Z,99971.56
2023-05-20T19:38:18.064Z,99967.56
2023-05-20T19:40:45.548Z,99971.16
2023-05-20T19:43:12.547Z,99971.34
2023-05-20T19:45:39.762Z,99971.53
2023-05-20T19:48:07.209Z,99977.63
2023-05-20T19:50:34.417Z,99973.56
2023-05-20T19:53:06.038Z,99976.25
2023-05-20T19:55:35.546Z,99980.78
2023-05-20T19:58:02.946Z,99980.06
2023-05-20T20:00:29.955Z,99973.41
2023-05-20T20:02:57.663Z,99973.56
2023-05-20T20:05:25.988Z,99978.88
2023-05-20T20:07:53.201Z,99978.22
2023-05-20T20:10:20.283Z,99974.91
2023-05-20T20:12:47.427Z,99976.78
2023-05-20T20:15:14.638Z,99971.84
2023-05-20T20:17:45.559Z,99965.97
2023-05-20T20:20:14.365Z,99960.13
2023-05-20T20:22:42.273Z,99967.09
2023-05-20T20:25:09.584Z,99968.13
2023-05-20T20:27:36.596Z,99969.84
2023-05-20T20:30:04.290Z,99971.59
2023-05-20T20:32:32.170Z,99971.72
2023-05-20T20:34:59.491Z,99968.44
2023-05-20T20:37:27.316Z,99968.50
2023-05-20T20:39:57.170Z,99966.84
2023-05-20T20:42:24.198Z,99961.00
2023-05-20T20:44:55.555Z,99956.81
2023-05-20T20:47:23.754Z,99957.75
2023-05-20T20:49:50.982Z,99956.13
2023-05-20T20:52:17.935Z,99954.56
2023-05-20T20:54:45.251Z,99952.06
2023-05-20T20:57:13.875Z,99952.09
2023-05-20T20:59:47.507Z,99948.78
2023-05-20T21:02:14.767Z,99956.53
2023-05-20T21:04:42.744Z,99954.88
2023-05-20T21:07:09.927Z,99949.84
2023-05-20T21:09:36.935Z,99949.88
2023-05-20T21:12:06.539Z,99947.41
2023-05-20T21:14:33.786Z,99955.09
2023-05-20T21:17:01.002Z,99953.47
2023-05-20T21:19:29.788Z,99948.41
2023-05-20T21:21:57.274Z,99947.63
2023-05-20T21:24:24.231Z,99946.00
2023-05-20T21:26:51.291Z,99950.28
2023-05-20T21:29:18.289Z,99952.91
2023-05-20T21:31:45.368Z,99948.69
2023-05-20T21:34:12.307Z,99954.69
2023-05-20T21:36:39.421Z,99949.66
2023-05-20T21:39:06.546Z,99947.16
2023-05-20T21:41:33.524Z,99944.69
2023-05-20T21:44:00.559Z,99944.78
2023-05-20T21:46:27.577Z,99943.13
2023-05-20T21:48:54.597Z,99939.75
2023-05-20T21:51:21.598Z,99939.81
2023-05-20T21:53:48.584Z,99945.84
2023-05-20T21:56:15.723Z,99939.13
2023-05-20T21:58:42.700Z,99943.47
2023-05-20T22:01:10.053Z,99934.16
2023-05-20T22:03:38.232Z,99921.50
2023-05-20T22:06:06.165Z,99920.69
2023-05-20T22:08:33.776Z,99924.97
2023-05-20T22:11:05.367Z,99925.03
2023-05-20T22:13:33.666Z,99925.97
2023-05-20T22:16:01.913Z,99930.25
2023-05-20T22:18:29.311Z,99925.19
2023-05-20T22:21:00.122Z,99922.66
2023-05-20T22:23:28.639Z,99921.78
2023-05-20T22:25:56.284Z,99914.13
2023-05-20T22:28:23.742Z,99915.00
2023-05-20T22:30:51.543Z,99916.69
2023-05-20T22:33:18.803Z,99910.69
2023-05-20T22:35:45.942Z,99907.22
2023-05-20T22:38:12.964Z,99910.53
2023-05-20T22:40:39.948Z,99913.84
2023-05-20T22:43:06.975Z,99908.59
2023-05-20T22:45:34.074Z,99905.09
2023-05-20T22:48:01.967Z,99899.03
2023-05-20T22:50:29.081Z,99901.50
2023-05-20T22:52:56.327Z,99898.03
2023-05-20T22:55:23.861Z,99901.31
2023-05-20T22:57:51.361Z,99896.09
2023-05-20T23:00:18.788Z,99888.34
2023-05-20T23:02:49.473Z,99895.94
2023-05-20T23:05:16.730Z,99893.31
2023-05-20T23:07:44.782Z,99890.69
2023-05-20T23:10:11.848Z,99879.59
2023-05-20T23:12:38.931Z,99877.88
2023-05-20T23:15:06.868Z,99879.56
2023-05-20T23:17:34.450Z,99877.78
2023-05-20T23:20:01.531Z,99875.19
2023-05-20T23:22:30.251Z,99866.69
2023-05-20T23:24:57.256Z,99859.84
2023-05-20T23:27:24.220Z,99858.97
2023-05-20T23:29:51.200Z,99860.66
2023-05-20T23:32:18.286Z,99853.00
2023-05-20T23:34:46.392Z,99855.56
2023-05-20T23:37:13.751Z,99844.50
2023-05-20T23:39:40.860Z,99835.19
2023-05-20T23:42:07.879Z,99836.91
2023-05-20T23:44:34.841Z,99842.09
2023-05-20T23:47:03.674Z,99836.22
2023-05-20T23:49:32.045Z,99834.59
2023-05-20T23:51:59.137Z,99829.56
2023-05-20T23:54:26.129Z,99828.78
2023-05-20T23:56:53.203Z,99826.31
2023-05-20T23:59:20.248Z,99826.41
